Time;durP1;ratioP1;P1;durP2;ratioP2;P2;SDS_P1;SDS_P2;PMS_P1;PMS_P2;Temp;Humidity;BMP_temperature;BMP_pressure;BME280_temperature;BME280_humidity;BME280_pressure;Samples;Min_cycle;Max_cycle;Signal;HPM_P1;HPM_P2
2021/08/31 00:00:38;;;;;;;;;16.00;13.75;;;;;20.44;59.41;101872.44;5040835;28;45319;-67
2021/08/31 00:03:03;;;;;;;;;11.00;11.00;;;;;20.38;58.97;101872.78;5035886;28;45244;-66
2021/08/31 00:05:29;;;;;;;;;10.75;9.25;;;;;20.46;59.01;101884.94;5032529;28;45316;-67
2021/08/31 00:07:54;;;;;;;;;11.75;8.75;;;;;20.41;59.07;101870.75;5040462;28;45265;-66
2021/08/31 00:10:19;;;;;;;;;11.00;11.00;;;;;20.43;58.81;101877.00;5040785;28;45267;-66
2021/08/31 00:12:45;;;;;;;;;12.50;9.75;;;;;20.39;59.02;101874.53;5040881;28;45434;-66
2021/08/31 00:15:11;;;;;;;;;14.50;11.50;;;;;20.42;59.13;101877.09;5040354;28;45432;-66
2021/08/31 00:17:37;;;;;;;;;15.00;10.00;;;;;20.39;59.30;101872.69;5040260;28;45424;-67
2021/08/31 00:20:06;;;;;;;;;11.50;10.75;;;;;20.39;59.32;101871.81;5040824;28;45506;-66
2021/08/31 00:22:32;;;;;;;;;9.25;9.25;;;;;20.34;59.29;101861.22;5040255;28;45440;-66
2021/08/31 00:24:57;;;;;;;;;10.50;10.00;;;;;20.31;59.49;101855.97;5040718;28;45681;-66
2021/08/31 00:27:23;;;;;;;;;11.50;9.75;;;;;20.35;59.03;101863.00;5039948;28;45346;-66
2021/08/31 00:29:48;;;;;;;;;12.25;10.00;;;;;20.38;59.10;101873.66;5040242;28;45442;-66
2021/08/31 00:32:13;;;;;;;;;15.75;12.75;;;;;20.34;59.34;101859.38;5040474;28;45390;-66
2021/08/31 00:34:38;;;;;;;;;10.50;8.50;;;;;20.39;59.10;101869.97;5040474;28;45295;-66
2021/08/31 00:37:04;;;;;;;;;10.25;8.75;;;;;20.35;59.19;101869.28;5040170;28;45303;-66
2021/08/31 00:39:31;;;;;;;;;13.25;9.75;;;;;20.32;59.28;101866.72;5040130;28;45311;-67
2021/08/31 00:41:57;;;;;;;;;9.50;9.50;;;;;20.36;59.11;101881.88;5039945;28;45408;-67
2021/08/31 00:44:28;;;;;;;;;8.50;8.00;;;;;20.36;59.26;101890.03;5040155;28;45479;-66
2021/08/31 00:46:58;;;;;;;;;14.00;8.75;;;;;20.36;59.43;101881.00;5040033;28;45995;-66
2021/08/31 00:49:25;;;;;;;;;12.75;10.00;;;;;20.31;59.04;101873.13;5040188;28;45439;-66
2021/08/31 00:51:51;;;;;;;;;10.00;9.00;;;;;20.30;59.04;101862.38;5040239;28;45255;-66
2021/08/31 00:54:18;;;;;;;;;11.75;10.25;;;;;20.36;59.07;101875.56;5039800;28;45518;-66
2021/08/31 00:56:45;;;;;;;;;10.25;10.00;;;;;20.35;59.52;101868.41;5040194;28;45453;-66
2021/08/31 00:59:11;;;;;;;;;9.25;9.25;;;;;20.35;59.12;101869.28;5039945;28;45834;-66
2021/08/31 01:01:36;;;;;;;;;10.00;9.25;;;;;20.31;59.30;101862.28;5040325;28;45259;-66
2021/08/31 01:04:02;;;;;;;;;12.25;10.25;;;;;20.34;58.93;101869.34;5026607;28;45257;-66
2021/08/31 01:06:27;;;;;;;;;9.50;9.25;;;;;20.32;59.20;101874.88;5035398;28;48382;-66
2021/08/31 01:08:54;;;;;;;;;10.00;9.25;;;;;20.32;59.40;101877.56;5039771;28;45208;-66
2021/08/31 01:11:20;;;;;;;;;10.50;8.75;;;;;20.26;59.47;101872.47;5040143;28;45228;-66
2021/08/31 01:13:46;;;;;;;;;10.00;10.00;;;;;20.25;59.55;101878.88;5039355;28;45611;-66
2021/08/31 01:16:12;;;;;;;;;13.75;11.25;;;;;20.29;59.58;101888.59;5039574;28;45642;-66
2021/08/31 01:18:37;;;;;;;;;13.75;10.00;;;;;20.29;59.36;101887.72;5052905;28;45199;-66
2021/08/31 01:21:02;;;;;;;;;9.25;8.25;;;;;20.30;58.93;101884.94;5040138;28;45209;-66
2021/08/31 01:23:29;;;;;;;;;14.25;11.25;;;;;20.31;59.03;101892.13;5039394;28;45495;-66
2021/08/31 01:25:54;;;;;;;;;11.50;9.25;;;;;20.21;59.04;101869.16;5039707;28;46371;-66
2021/08/31 01:28:26;;;;;;;;;8.75;8.75;;;;;20.29;59.23;101879.59;5039457;28;45406;-66
2021/08/31 01:30:53;;;;;;;;;9.50;8.25;;;;;20.24;59.26;101860.00;5039772;28;45255;-66
2021/08/31 01:33:21;;;;;;;;;8.25;8.00;;;;;20.29;59.26;101874.16;5039483;28;45463;-66
2021/08/31 01:35:46;;;;;;;;;10.75;10.00;;;;;20.28;59.24;101884.16;5043787;28;46177;-66
2021/08/31 01:38:12;;;;;;;;;7.25;7.25;;;;;20.27;59.25;101874.25;5040115;28;45310;-66
2021/08/31 01:40:37;;;;;;;;;10.75;7.25;;;;;20.24;58.86;101876.25;5042936;28;45350;-66
2021/08/31 01:43:03;;;;;;;;;7.50;7.50;;;;;20.21;59.29;101871.00;5042986;28;45508;-66
2021/08/31 01:45:41;;;;;;;;;6.50;6.50;;;;;20.16;58.98;101861.31;5043099;28;45383;-66
2021/08/31 01:48:06;;;;;;;;;6.75;6.25;;;;;20.25;59.38;101888.88;5043042;28;45432;-66
2021/08/31 01:50:31;;;;;;;;;5.50;5.50;;;;;20.25;59.04;101881.59;5043151;28;45247;-66
2021/08/31 01:52:57;;;;;;;;;7.25;6.25;;;;;20.23;59.16;101886.22;5042706;28;45331;-66
2021/08/31 01:55:22;;;;;;;;;6.25;5.25;;;;;20.17;59.15;101873.00;5043066;28;46661;-66
2021/08/31 01:57:47;;;;;;;;;6.50;6.00;;;;;20.21;59.43;101881.84;5042458;28;48818;-66
2021/08/31 02:00:13;;;;;;;;;8.25;7.25;;;;;20.20;59.32;101889.09;5043153;28;45392;-66
2021/08/31 02:02:38;;;;;;;;;6.50;6.50;;;;;20.19;59.05;101881.94;5041002;28;45364;-66
2021/08/31 02:05:04;;;;;;;;;6.75;6.50;;;;;20.15;58.97;101881.22;5030966;28;45407;-66
2021/08/31 02:07:29;;;;;;;;;5.50;5.25;;;;;20.18;59.31;101891.91;5042424;28;45420;-67
2021/08/31 02:09:54;;;;;;;;;6.75;6.75;;;;;20.14;59.67;101890.31;5042927;28;45415;-66
2021/08/31 02:12:20;;;;;;;;;5.25;5.00;;;;;20.16;59.29;101895.63;5042615;28;45287;-66
2021/08/31 02:14:45;;;;;;;;;7.50;6.50;;;;;20.14;59.22;101893.00;5042476;28;46112;-67
2021/08/31 02:17:10;;;;;;;;;8.75;8.00;;;;;20.09;59.22;101888.81;5042194;28;45304;-66
2021/08/31 02:19:36;;;;;;;;;8.50;6.25;;;;;20.05;59.21;101885.41;5042847;28;45339;-66
2021/08/31 02:22:01;;;;;;;;;5.00;5.00;;;;;20.09;58.90;101894.22;5042450;28;45300;-66
2021/08/31 02:24:26;;;;;;;;;6.75;6.75;;;;;20.11;59.05;101897.72;5042263;28;46143;-66
2021/08/31 02:26:52;;;;;;;;;7.75;6.25;;;;;20.11;59.17;101900.44;5046595;28;45450;-66
2021/08/31 02:29:18;;;;;;;;;7.25;7.00;;;;;20.07;59.35;101896.16;5042253;28;45549;-66
2021/08/31 02:31:43;;;;;;;;;6.25;6.25;;;;;20.08;59.30;101896.09;5035842;28;45562;-66
2021/08/31 02:34:09;;;;;;;;;7.00;6.50;;;;;20.06;59.26;101897.97;5042367;28;46215;-66
2021/08/31 02:36:34;;;;;;;;;7.50;6.00;;;;;20.04;59.53;101890.91;5045152;28;45223;-67
2021/08/31 02:38:59;;;;;;;;;8.00;7.50;;;;;20.07;59.32;101885.31;5042049;28;45291;-66
2021/08/31 02:41:25;;;;;;;;;9.75;7.00;;;;;20.05;59.47;101881.81;5041682;28;45613;-66
2021/08/31 02:43:50;;;;;;;;;8.00;5.00;;;;;20.06;59.40;101891.69;5042079;28;46261;-66
2021/08/31 02:46:15;;;;;;;;;11.25;8.00;;;;;20.05;59.24;101881.81;5041501;28;45240;-66
2021/08/31 02:48:41;;;;;;;;;7.00;6.50;;;;;20.05;59.22;101889.94;5041847;28;45307;-66
2021/08/31 02:51:07;;;;;;;;;6.50;6.50;;;;;20.05;59.42;101885.41;5043125;28;45308;-66
2021/08/31 02:53:32;;;;;;;;;7.50;6.75;;;;;20.06;59.21;101880.84;5054009;28;46844;-66
2021/08/31 02:55:57;;;;;;;;;12.00;10.00;;;;;19.99;59.13;101867.63;5041903;28;45209;-66
2021/08/31 02:58:23;;;;;;;;;7.00;6.00;;;;;20.09;59.03;101880.69;5042006;28;45676;-66
2021/08/31 03:01:03;;;;;;;;;7.25;7.25;;;;;19.98;59.07;101863.19;5041864;28;45547;-66
2021/08/31 03:03:29;;;;;;;;;9.00;8.25;;;;;20.01;59.08;101872.09;5033178;28;47093;-67
2021/08/31 03:05:54;;;;;;;;;6.50;6.00;;;;;19.92;59.31;101862.63;5037129;28;45624;-66
2021/08/31 03:08:19;;;;;;;;;7.50;7.00;;;;;20.03;59.38;101875.59;5041721;28;45292;-66
2021/08/31 03:10:45;;;;;;;;;8.50;6.25;;;;;20.03;59.35;101873.78;5055028;28;45997;-66
2021/08/31 03:13:10;;;;;;;;;6.75;6.75;;;;;20.04;59.53;101871.94;5041671;28;46782;-66
2021/08/31 03:15:35;;;;;;;;;9.50;8.75;;;;;20.05;59.30;101879.97;5041141;28;45372;-66
2021/08/31 03:18:00;;;;;;;;;7.00;5.75;;;;;19.96;59.39;101861.50;5041713;28;45240;-66
2021/08/31 03:20:26;;;;;;;;;9.00;9.00;;;;;20.02;59.18;101871.16;5041662;28;45142;-66
2021/08/31 03:22:52;;;;;;;;;6.50;6.25;;;;;20.04;59.41;101882.78;5049651;28;45870;-66
2021/08/31 03:25:17;;;;;;;;;9.75;7.00;;;;;20.04;59.23;101882.78;5035083;28;46629;-66
2021/08/31 03:27:42;;;;;;;;;6.75;6.75;;;;;19.98;59.10;101876.72;5041605;28;45260;-66
2021/08/31 03:30:08;;;;;;;;;7.25;6.75;;;;;19.97;59.36;101880.38;5041181;28;45545;-66
2021/08/31 03:32:33;;;;;;;;;11.25;7.25;;;;;20.04;59.18;101890.91;5041353;28;45369;-66
2021/08/31 03:34:59;;;;;;;;;7.50;7.25;;;;;20.02;58.97;101893.69;5041093;28;45316;-66
2021/08/31 03:37:24;;;;;;;;;7.75;7.75;;;;;19.92;59.13;101876.19;5041164;28;45362;-66
2021/08/31 03:39:49;;;;;;;;;10.75;9.00;;;;;19.99;59.20;101894.72;5041036;28;45237;-66
2021/08/31 03:42:14;;;;;;;;;9.75;8.50;;;;;20.04;59.23;101897.19;5040712;28;49741;-67
2021/08/31 03:44:40;;;;;;;;;8.25;6.50;;;;;20.02;59.22;101909.09;5041024;28;45370;-66
2021/08/31 03:47:05;;;;;;;;;9.50;8.25;;;;;19.96;59.22;101894.00;5041383;28;45560;-66
2021/08/31 03:49:31;;;;;;;;;10.00;8.50;;;;;19.96;59.19;101899.44;5041126;28;45444;-66
2021/08/31 03:51:56;;;;;;;;;12.25;11.25;;;;;19.91;59.01;101897.00;5040781;28;47421;-67
2021/08/31 03:54:21;;;;;;;;;9.25;6.50;;;;;19.92;59.17;101889.72;5040770;28;45310;-66
2021/08/31 03:56:47;;;;;;;;;6.75;6.75;;;;;19.93;59.41;101892.34;5041274;28;45345;-66
2021/08/31 03:59:12;;;;;;;;;10.25;8.75;;;;;19.95;59.32;101895.84;5040925;28;45398;-66
2021/08/31 04:01:37;;;;;;;;;10.25;7.25;;;;;20.01;59.22;101904.63;5040529;28;45351;-66
2021/08/31 04:04:03;;;;;;;;;10.00;8.75;;;;;20.01;59.20;101899.19;5027419;28;45257;-66
2021/08/31 04:06:28;;;;;;;;;8.75;8.25;;;;;20.04;59.24;101905.31;5028098;28;45205;-66
2021/08/31 04:08:54;;;;;;;;;9.75;9.25;;;;;19.98;59.30;101895.69;5040625;28;45563;-66
2021/08/31 04:11:19;;;;;;;;;9.00;6.75;;;;;20.00;59.18;101898.31;5040731;28;46252;-66
2021/08/31 04:13:44;;;;;;;;;7.75;7.25;;;;;19.99;59.33;101902.84;5040585;28;45244;-66
2021/08/31 04:16:10;;;;;;;;;12.50;11.75;;;;;19.95;59.41;101893.16;5040584;28;45262;-66
2021/08/31 04:18:35;;;;;;;;;10.00;9.00;;;;;20.01;59.31;101907.31;5056093;28;45624;-67
2021/08/31 04:21:00;;;;;;;;;15.00;12.00;;;;;19.94;59.24;101894.09;5040626;28;45245;-66
2021/08/31 04:23:26;;;;;;;;;10.75;9.25;;;;;19.97;59.11;101904.78;5040290;28;45178;-66
2021/08/31 04:25:51;;;;;;;;;10.25;8.25;;;;;19.88;59.40;101890.84;5040991;28;45272;-66
2021/08/31 04:28:17;;;;;;;;;11.75;9.50;;;;;19.80;59.30;101886.72;5040169;28;47873;-66
2021/08/31 04:30:42;;;;;;;;;13.25;11.00;;;;;19.91;59.44;101901.50;5040455;28;45289;-66
2021/08/31 04:33:07;;;;;;;;;14.50;12.00;;;;;19.96;59.57;101918.41;5040305;28;45306;-67
2021/08/31 04:35:33;;;;;;;;;10.25;9.00;;;;;19.87;59.35;101895.38;5040717;28;45376;-66
2021/08/31 04:37:58;;;;;;;;;14.75;13.50;;;;;19.93;59.30;101910.44;5039745;28;50820;-66
2021/08/31 04:40:23;;;;;;;;;13.50;12.75;;;;;19.93;59.43;101911.31;5039571;28;51335;-66
2021/08/31 04:42:50;;;;;;;;;11.00;10.00;;;;;19.98;59.51;101914.66;5040322;28;45322;-66
2021/08/31 04:45:15;;;;;;;;;12.75;11.75;;;;;19.96;59.49;101911.16;5040363;28;45675;-66
2021/08/31 04:47:41;;;;;;;;;12.00;11.00;;;;;19.95;59.30;101903.97;5040319;28;45430;-66
2021/08/31 04:50:07;;;;;;;;;14.25;13.00;;;;;20.01;59.43;101923.59;5040137;28;45958;-66
2021/08/31 04:52:33;;;;;;;;;14.25;12.50;;;;;19.99;59.05;101921.81;5053565;28;45380;-66
2021/08/31 04:54:58;;;;;;;;;12.25;11.50;;;;;19.91;59.17;101909.66;5040477;28;45324;-67
2021/08/31 04:57:24;;;;;;;;;14.25;13.50;;;;;19.97;59.24;101926.44;5040046;28;45427;-66
2021/08/31 04:59:49;;;;;;;;;13.50;10.75;;;;;19.74;59.50;101886.13;5039779;28;46526;-66
2021/08/31 05:02:14;;;;;;;;;16.25;13.25;;;;;19.98;59.33;101927.34;5040082;28;45162;-66
2021/08/31 05:04:39;;;;;;;;;14.00;12.50;;;;;19.94;59.14;101923.03;5026564;28;45371;-66
2021/08/31 05:07:06;;;;;;;;;18.25;15.50;;;;;19.96;59.50;101930.13;5040149;28;45341;-66
2021/08/31 05:09:32;;;;;;;;;15.75;14.50;;;;;19.87;59.51;101913.50;5039587;28;46483;-66
2021/08/31 05:11:57;;;;;;;;;13.00;12.25;;;;;19.87;59.71;101914.34;5039416;28;45213;-66
2021/08/31 05:14:23;;;;;;;;;12.50;12.50;;;;;19.93;59.58;101927.59;5038951;28;45458;-66
2021/08/31 05:16:48;;;;;;;;;15.00;11.50;;;;;19.89;59.67;101917.84;5039883;28;45262;-66
2021/08/31 05:19:13;;;;;;;;;18.50;13.00;;;;;19.90;59.56;101921.47;5039459;28;45285;-66
2021/08/31 05:21:39;;;;;;;;;12.75;10.25;;;;;19.94;59.73;101925.75;5039981;28;45361;-66
2021/08/31 05:24:04;;;;;;;;;15.50;12.75;;;;;19.95;59.54;101931.09;5039525;28;45357;-66
2021/08/31 05:26:30;;;;;;;;;13.50;13.50;;;;;19.94;59.93;101923.03;5039833;28;45315;-66
2021/08/31 05:28:55;;;;;;;;;14.50;14.25;;;;;19.92;59.75;101923.13;5034534;28;47273;-66
2021/08/31 05:31:20;;;;;;;;;13.50;13.25;;;;;19.89;59.43;101917.84;5039684;28;45474;-66
2021/08/31 05:33:46;;;;;;;;;14.25;13.25;;;;;19.90;59.63;101926.88;5039614;28;45361;-66
2021/08/31 05:36:11;;;;;;;;;16.00;12.75;;;;;19.92;60.12;101931.25;5039717;28;45312;-66
2021/08/31 05:38:36;;;;;;;;;14.75;13.50;;;;;19.94;59.74;101934.75;5038895;28;46452;-66
2021/08/31 05:41:02;;;;;;;;;17.25;17.00;;;;;19.94;59.85;101934.75;5039538;28;45343;-66
2021/08/31 05:43:28;;;;;;;;;17.25;15.50;;;;;19.93;59.68;101934.81;5039334;28;45513;-66
2021/08/31 05:45:54;;;;;;;;;17.25;16.00;;;;;19.93;60.32;101940.22;5039656;28;45288;-66
2021/08/31 05:48:19;;;;;;;;;18.00;14.50;;;;;19.91;60.03;101940.34;5039153;28;45244;-66
2021/08/31 05:50:44;;;;;;;;;24.25;17.75;;;;;19.92;59.97;101950.22;5039491;28;45225;-66
2021/08/31 05:53:10;;;;;;;;;17.25;16.25;;;;;19.79;59.96;101925.59;5039239;28;45334;-66
2021/08/31 05:55:36;;;;;;;;;15.75;15.75;;;;;19.89;60.26;101947.66;5039387;28;45392;-66
2021/08/31 05:58:01;;;;;;;;;17.50;16.75;;;;;19.86;60.17;101945.09;5052363;28;45665;-66
2021/08/31 06:00:26;;;;;;;;;17.25;17.25;;;;;19.87;60.78;101951.41;5039278;28;45233;-66
2021/08/31 06:02:54;;;;;;;;;17.50;15.50;;;;;19.82;60.39;101939.94;5035732;28;45428;-66
2021/08/31 06:05:20;;;;;;;;;16.75;16.00;;;;;19.80;60.38;101940.03;5029676;28;45401;-66
2021/08/31 06:07:45;;;;;;;;;22.25;17.25;;;;;19.81;60.18;101947.19;5038585;28;47416;-66
2021/08/31 06:10:13;;;;;;;;;21.25;20.25;;;;;19.83;60.58;101948.00;5038506;28;45284;-66
2021/08/31 06:12:38;;;;;;;;;22.25;18.00;;;;;19.83;60.46;101948.00;5038083;28;46330;-66
2021/08/31 06:15:04;;;;;;;;;17.50;17.50;;;;;19.82;60.46;101954.38;5036434;28;45428;-66
2021/08/31 06:17:31;;;;;;;;;21.25;19.25;;;;;19.84;60.42;101955.16;5037452;28;45660;-66
2021/08/31 06:19:57;;;;;;;;;16.75;14.25;;;;;19.74;60.44;101943.00;5053693;28;45173;-76
2021/08/31 06:22:22;;;;;;;;;21.50;18.50;;;;;19.81;60.61;101955.31;5038735;28;45425;-76
2021/08/31 06:24:48;;;;;;;;;18.50;16.75;;;;;19.74;60.65;101943.88;5040259;28;45406;-76
2021/08/31 06:27:13;;;;;;;;;16.50;16.00;;;;;19.75;60.57;101945.69;5042363;28;45407;-75
2021/08/31 06:29:38;;;;;;;;;16.75;16.75;;;;;19.77;60.54;101949.19;5037390;28;45757;-74
2021/08/31 06:32:04;;;;;;;;;17.50;17.25;;;;;19.86;60.40;101966.78;5051385;28;45508;-74
2021/08/31 06:34:30;;;;;;;;;16.25;16.00;;;;;19.68;60.70;101932.47;5043963;28;46135;-74
2021/08/31 06:36:55;;;;;;;;;17.75;16.75;;;;;19.87;60.75;101964.97;5031324;28;46932;-74
2021/08/31 06:39:21;;;;;;;;;20.50;18.50;;;;;19.76;61.03;101949.25;5041655;28;45421;-74
2021/08/31 06:41:47;;;;;;;;;20.75;17.25;;;;;19.86;60.62;101972.19;5050327;28;45464;-73
2021/08/31 06:44:12;;;;;;;;;19.50;18.25;;;;;19.77;61.02;101951.88;5039347;28;45804;-74
2021/08/31 06:46:38;;;;;;;;;22.00;19.50;;;;;19.73;60.74;101942.16;5041662;28;46284;-74
2021/08/31 06:49:03;;;;;;;;;21.50;20.50;;;;;19.88;60.86;101972.13;5055168;28;45283;-72
2021/08/31 06:51:29;;;;;;;;;20.75;19.25;;;;;19.87;60.93;101962.25;5042126;28;45476;-75
2021/08/31 06:53:54;;;;;;;;;22.00;20.50;;;;;19.80;60.76;101957.16;5045041;28;45509;-76
2021/08/31 06:56:22;;;;;;;;;16.00;15.75;;;;;19.85;60.84;101961.47;5041436;28;45462;-76
2021/08/31 06:58:48;;;;;;;;;25.00;19.00;;;;;19.77;60.72;101954.59;5041683;28;45443;-76
2021/08/31 07:01:14;;;;;;;;;24.25;18.75;;;;;19.86;60.88;101972.19;5041884;28;45370;-76
2021/08/31 07:03:39;;;;;;;;;22.75;18.50;;;;;19.85;61.13;101970.47;5053221;28;45846;-77
2021/08/31 07:06:05;;;;;;;;;21.00;18.25;;;;;19.85;61.00;101969.59;5041302;28;45332;-76
2021/08/31 07:08:30;;;;;;;;;27.25;22.25;;;;;19.83;60.76;101972.38;5033489;28;45469;-76
2021/08/31 07:10:56;;;;;;;;;22.00;20.75;;;;;19.79;61.07;101959.94;5047350;28;45428;-78
2021/08/31 07:13:22;;;;;;;;;22.25;19.25;;;;;19.82;60.65;101965.19;5037942;28;45855;-75
2021/08/31 07:15:48;;;;;;;;;20.75;19.25;;;;;19.87;60.95;101973.97;5040140;28;45397;-75
2021/08/31 07:18:13;;;;;;;;;19.75;19.00;;;;;19.79;60.89;101954.50;5040901;28;45351;-75
2021/08/31 07:20:38;;;;;;;;;18.75;18.25;;;;;19.72;60.90;101934.09;5044242;28;45509;-75
2021/08/31 07:23:04;;;;;;;;;21.75;19.75;;;;;19.78;61.18;101950.06;5044758;28;45423;-75
2021/08/31 07:25:29;;;;;;;;;20.25;20.25;;;;;19.92;60.89;101974.59;5038571;28;45741;-75
2021/08/31 07:27:55;;;;;;;;;24.50;20.75;;;;;19.93;60.92;101970.03;5035201;28;45459;-75
2021/08/31 07:30:20;;;;;;;;;21.50;20.50;;;;;19.93;60.92;101973.66;5039926;28;45642;-75
2021/08/31 07:32:45;;;;;;;;;24.25;21.50;;;;;19.93;61.27;101981.78;5040554;28;45451;-75
2021/08/31 07:35:11;;;;;;;;;21.75;20.25;;;;;19.87;60.86;101964.97;5039535;28;46100;-74
2021/08/31 07:37:36;;;;;;;;;20.50;18.75;;;;;19.89;61.05;101980.16;5040175;28;45411;-75
2021/08/31 07:40:03;;;;;;;;;19.75;18.50;;;;;19.84;60.95;101970.53;5040650;28;45483;-75
2021/08/31 07:42:28;;;;;;;;;24.75;20.00;;;;;19.92;61.07;101977.31;5040509;28;45419;-75
2021/08/31 07:44:54;;;;;;;;;24.00;22.50;;;;;19.89;61.25;101969.34;5024093;28;46582;-75
2021/08/31 07:47:19;;;;;;;;;27.25;22.00;;;;;19.93;61.22;101978.19;5038587;28;45609;-75
2021/08/31 07:49:45;;;;;;;;;23.50;21.50;;;;;19.94;61.13;101983.50;5038925;28;45376;-75
2021/08/31 07:52:10;;;;;;;;;28.00;24.00;;;;;19.99;61.39;101978.72;5041034;28;45879;-75
2021/08/31 07:54:36;;;;;;;;;23.00;18.25;;;;;19.95;61.04;101977.16;5037540;28;45525;-75
2021/08/31 07:57:02;;;;;;;;;29.00;22.75;;;;;20.02;60.80;101987.69;5038317;28;45399;-76
2021/08/31 07:59:27;;;;;;;;;26.50;25.25;;;;;19.99;61.04;101992.28;5037239;28;45394;-74
2021/08/31 08:01:52;;;;;;;;;28.50;25.75;;;;;19.98;61.07;101978.84;5035513;28;45585;-75
2021/08/31 08:04:18;;;;;;;;;26.25;22.25;;;;;19.97;61.30;101987.91;5035961;28;45486;-76
2021/08/31 08:06:43;;;;;;;;;22.50;21.00;;;;;19.98;60.98;101979.72;5038353;28;45130;-75
2021/08/31 08:09:09;;;;;;;;;25.75;24.00;;;;;19.91;60.53;101977.38;5036865;28;45277;-75
2021/08/31 08:11:35;;;;;;;;;23.50;21.75;;;;;20.06;60.98;101995.53;5029274;28;45802;-75
2021/08/31 08:14:00;;;;;;;;;29.25;24.50;;;;;20.05;60.91;101993.81;5034533;28;46474;-76
2021/08/31 08:16:26;;;;;;;;;27.00;23.50;;;;;20.10;61.16;102001.72;5037475;28;46262;-75
2021/08/31 08:18:51;;;;;;;;;24.25;22.50;;;;;20.11;61.10;102009.75;5035627;28;45533;-76
2021/08/31 08:21:17;;;;;;;;;25.75;23.75;;;;;20.12;60.73;102008.78;5038704;28;45500;-75
2021/08/31 08:23:42;;;;;;;;;21.75;20.75;;;;;20.07;60.75;102005.44;5037396;28;46188;-65
2021/08/31 08:26:09;;;;;;;;;20.75;20.25;;;;;20.11;60.65;102012.47;5038935;28;45440;-65
2021/08/31 08:28:36;;;;;;;;;25.50;24.00;;;;;20.15;60.41;102007.75;5020840;28;45607;-65
2021/08/31 08:31:01;;;;;;;;;24.75;22.75;;;;;20.13;60.73;102004.22;5038987;28;45443;-66
2021/08/31 08:33:27;;;;;;;;;21.75;20.25;;;;;20.16;60.27;102010.41;5038795;28;46179;-65
2021/08/31 08:35:53;;;;;;;;;20.00;19.50;;;;;20.19;60.39;102014.75;5038921;28;45363;-65
2021/08/31 08:38:19;;;;;;;;;24.00;21.25;;;;;20.20;59.87;102010.19;5037741;28;45455;-66
2021/08/31 08:40:45;;;;;;;;;22.00;19.50;;;;;20.21;60.19;102015.56;5038885;28;45368;-65
2021/08/31 08:43:12;;;;;;;;;20.25;18.50;;;;;20.18;60.00;102010.31;5034797;28;45564;-65
2021/08/31 08:45:44;;;;;;;;;18.50;17.75;;;;;20.22;60.28;102017.31;5036871;28;45371;-65
2021/08/31 08:48:16;;;;;;;;;25.75;20.50;;;;;20.24;60.30;102014.53;5035137;28;45359;-65
2021/08/31 08:50:42;;;;;;;;;21.75;20.50;;;;;20.26;60.21;102012.59;5036558;28;45379;-65
2021/08/31 08:53:10;;;;;;;;;20.00;19.25;;;;;20.27;60.14;102014.38;5035858;28;46603;-65
2021/08/31 08:55:35;;;;;;;;;20.75;18.25;;;;;20.33;59.76;102020.34;5022776;28;45631;-65
2021/08/31 08:58:00;;;;;;;;;21.25;20.00;;;;;20.38;59.89;102021.91;5036469;28;45390;-65
2021/08/31 09:00:53;;;;;;;;;22.75;19.75;;;;;20.30;59.65;102012.38;5036111;28;45584;-65
2021/08/31 09:03:23;;;;;;;;;18.75;18.50;;;;;20.43;59.36;102027.97;5035582;28;45571;-65
2021/08/31 09:06:03;;;;;;;;;17.50;16.50;;;;;20.46;59.42;102034.09;5036732;28;45672;-65
2021/08/31 09:08:28;;;;;;;;;21.00;19.00;;;;;20.49;59.46;102033.94;5037057;28;45451;-65
2021/08/31 09:10:53;;;;;;;;;23.50;22.75;;;;;20.52;59.46;102027.50;5036372;28;45364;-65
2021/08/31 09:13:20;;;;;;;;;23.25;19.00;;;;;20.50;59.48;102026.69;5030262;28;46129;-65
2021/08/31 09:15:46;;;;;;;;;20.25;20.25;;;;;20.59;59.53;102028.91;5038375;28;45555;-65
2021/08/31 09:18:16;;;;;;;;;19.25;18.75;;;;;20.58;58.56;102015.41;5037581;28;45508;-65
2021/08/31 09:20:54;;;;;;;;;21.75;20.25;;;;;20.64;58.82;102032.28;5038919;28;45405;-65
2021/08/31 09:23:26;;;;;;;;;18.50;15.25;;;;;20.64;58.60;102024.13;5031600;28;46184;-66
2021/08/31 09:26:01;;;;;;;;;19.50;19.50;;;;;20.64;58.10;102026.84;5039011;28;45573;-72
2021/08/31 09:28:30;;;;;;;;;19.00;17.75;;;;;20.70;58.44;102037.38;5038918;28;45431;-72
2021/08/31 09:31:08;;;;;;;;;17.25;16.75;;;;;20.72;58.06;102032.72;5037964;28;45338;-65
2021/08/31 09:33:38;;;;;;;;;18.25;16.75;;;;;20.72;57.62;102034.56;5036447;28;46135;-65
2021/08/31 09:36:06;;;;;;;;;23.00;20.00;;;;;20.71;57.83;102031.00;5038700;28;45481;-65
2021/08/31 09:39:06;;;;;;;;;21.00;20.25;;;;;20.72;57.58;102038.16;5038410;28;45436;-65
2021/08/31 09:41:38;;;;;;;;;18.00;16.00;;;;;20.76;57.85;102035.28;5034177;28;45566;-65
2021/08/31 09:44:20;;;;;;;;;18.25;18.25;;;;;20.77;57.23;102034.34;5038055;28;46581;-65
2021/08/31 09:46:53;;;;;;;;;21.25;18.75;;;;;20.76;57.10;102029.84;5038745;28;45376;-66
2021/08/31 09:49:25;;;;;;;;;18.50;17.00;;;;;20.77;57.27;102032.47;5038594;28;45406;-65
2021/08/31 09:52:09;;;;;;;;;22.25;18.75;;;;;20.80;57.26;102028.72;5038511;28;46472;-65
2021/08/31 09:54:40;;;;;;;;;26.00;19.50;;;;;20.81;56.52;102025.91;5037724;28;46210;-65
2021/08/31 09:57:35;;;;;;;;;23.50;23.00;;;;;20.86;57.08;102029.25;5038333;28;45482;-65
2021/08/31 10:00:07;;;;;;;;;18.00;16.75;;;;;20.90;57.15;102030.84;5030151;28;45296;-65
2021/08/31 10:02:33;;;;;;;;;21.25;21.25;;;;;20.96;56.85;102036.88;5039471;28;45360;-66
2021/08/31 10:04:59;;;;;;;;;25.00;21.50;;;;;20.98;57.17;102027.72;5028251;28;46082;-65
2021/08/31 10:07:25;;;;;;;;;22.00;22.00;;;;;21.01;56.96;102029.38;5041563;28;45208;-66
2021/08/31 10:09:52;;;;;;;;;23.50;20.75;;;;;21.04;56.69;102032.78;5049653;28;45266;-65
2021/08/31 10:12:21;;;;;;;;;26.75;24.00;;;;;21.04;57.01;102034.63;5045138;28;45465;-65
2021/08/31 10:14:50;;;;;;;;;24.25;24.25;;;;;;;;5040344;28;46458;-65
2021/08/31 10:17:19;;;;;;;;;24.00;22.75;;;;;21.01;56.52;102029.38;5040079;28;45262;-65
2021/08/31 10:19:46;;;;;;;;;21.25;18.00;;;;;21.09;56.87;102041.53;5042170;28;45446;-66
2021/08/31 10:22:13;;;;;;;;;23.75;23.00;;;;;21.12;57.17;102037.78;5040411;28;45474;-65
2021/08/31 10:24:43;;;;;;;;;24.25;22.00;;;;;21.15;56.39;102034.91;5042124;28;45396;-66
2021/08/31 10:27:35;;;;;;;;;24.00;23.75;;;;;21.17;56.14;102035.69;5040522;28;45260;-66
2021/08/31 10:30:21;;;;;;;;;26.00;23.75;;;;;21.19;56.92;102038.31;5041589;28;45398;-66
2021/08/31 10:32:51;;;;;;;;;23.75;23.25;;;;;21.23;56.99;102040.78;5037087;28;45355;-65
2021/08/31 10:35:44;;;;;;;;;27.25;24.25;;;;;21.26;56.37;102043.28;5040923;28;45466;-65
2021/08/31 10:38:11;;;;;;;;;27.25;24.25;;;;;21.28;56.51;102046.81;5038589;28;45625;-65
2021/08/31 10:40:46;;;;;;;;;27.00;25.50;;;;;21.33;56.51;102046.53;5041706;28;45491;-65
2021/08/31 10:43:19;;;;;;;;;28.25;27.50;;;;;21.34;55.70;102037.44;5039815;28;45364;-65
2021/08/31 10:45:54;;;;;;;;;26.50;21.00;;;;;21.36;56.04;102040.06;5041708;28;46848;-65
2021/08/31 10:48:25;;;;;;;;;32.50;27.75;;;;;21.42;56.41;102040.59;5041743;28;45396;-66
2021/08/31 10:51:11;;;;;;;;;35.00;29.50;;;;;21.42;56.64;102035.16;5039124;28;45270;-66
2021/08/31 10:53:47;;;;;;;;;27.50;24.00;;;;;21.50;56.40;102050.16;5039494;28;45281;-66
2021/08/31 10:56:22;;;;;;;;;19.50;19.50;;;;;21.53;55.37;102044.56;5035704;28;46678;-66
2021/08/31 10:58:51;;;;;;;;;20.75;20.00;;;;;21.48;55.94;102036.66;5039562;28;45280;-65
2021/08/31 11:01:21;;;;;;;;;20.25;19.25;;;;;21.52;55.65;102035.53;5038886;28;45239;-65
2021/08/31 11:03:48;;;;;;;;;22.50;19.50;;;;;21.52;55.41;102031.91;5029114;28;45596;-65
2021/08/31 11:06:26;;;;;;;;;22.25;20.50;;;;;21.58;55.50;102035.16;5039372;28;46601;-66
2021/08/31 11:09:04;;;;;;;;;18.50;17.50;;;;;21.62;55.29;102030.44;5028383;28;45360;-66
2021/08/31 11:11:29;;;;;;;;;18.75;15.50;;;;;21.61;54.44;102024.13;5029982;28;45378;-66
2021/08/31 11:13:56;;;;;;;;;25.00;24.00;;;;;21.68;54.47;102034.63;5041062;28;45334;-66